sensor_id;sensor_type;location;lat;lon;timestamp;P1;durP1;ratioP1;P2;durP2;ratioP2
9815;SDS011;4947;44.526;11.360;2023-05-13T00:01:14;1.15;;;1.00;;
9815;SDS011;4947;44.526;11.360;2023-05-13T00:03:41;1.15;;;1.13;;
9815;SDS011;4947;44.526;11.360;2023-05-13T00:06:10;1.30;;;1.20;;
9815;SDS011;4947;44.526;11.360;2023-05-13T00:08:37;1.50;;;1.08;;
9815;SDS011;4947;44.526;11.360;2023-05-13T00:11:05;1.15;;;1.02;;
9815;SDS011;4947;44.526;11.360;2023-05-13T00:13:32;1.52;;;0.93;;
9815;SDS011;4947;44.526;11.360;2023-05-13T00:16:00;0.90;;;0.90;;
9815;SDS011;4947;44.526;11.360;2023-05-13T00:18:30;0.90;;;0.90;;
9815;SDS011;4947;44.526;11.360;2023-05-13T00:20:57;0.90;;;0.90;;
9815;SDS011;4947;44.526;11.360;2023-05-13T00:23:24;1.00;;;1.00;;
9815;SDS011;4947;44.526;11.360;2023-05-13T00:25:52;1.42;;;1.02;;
9815;SDS011;4947;44.526;11.360;2023-05-13T00:28:19;0.75;;;0.75;;
9815;SDS011;4947;44.526;11.360;2023-05-13T00:30:47;1.10;;;1.00;;
9815;SDS011;4947;44.526;11.360;2023-05-13T00:33:14;1.40;;;1.27;;
9815;SDS011;4947;44.526;11.360;2023-05-13T00:35:43;0.90;;;0.90;;
9815;SDS011;4947;44.526;11.360;2023-05-13T00:38:11;1.23;;;1.13;;
9815;SDS011;4947;44.526;11.360;2023-05-13T00:40:38;0.93;;;0.90;;
9815;SDS011;4947;44.526;11.360;2023-05-13T00:43:06;1.00;;;1.00;;
9815;SDS011;4947;44.526;11.360;2023-05-13T00:45:35;0.98;;;0.90;;
9815;SDS011;4947;44.526;11.360;2023-05-13T00:48:03;0.90;;;0.80;;
9815;SDS011;4947;44.526;11.360;2023-05-13T00:50:32;1.02;;;0.93;;
9815;SDS011;4947;44.526;11.360;2023-05-13T00:53:01;1.05;;;0.95;;
9815;SDS011;4947;44.526;11.360;2023-05-13T00:55:30;1.13;;;1.00;;
9815;SDS011;4947;44.526;11.360;2023-05-13T00:57:57;1.25;;;1.15;;
9815;SDS011;4947;44.526;11.360;2023-05-13T01:00:25;1.10;;;1.00;;
9815;SDS011;4947;44.526;11.360;2023-05-13T01:02:56;1.42;;;1.25;;
9815;SDS011;4947;44.526;11.360;2023-05-13T01:05:30;1.15;;;1.00;;
9815;SDS011;4947;44.526;11.360;2023-05-13T01:08:10;1.20;;;1.10;;
9815;SDS011;4947;44.526;11.360;2023-05-13T01:10:45;1.20;;;1.10;;
9815;SDS011;4947;44.526;11.360;2023-05-13T01:13:16;1.27;;;1.17;;
9815;SDS011;4947;44.526;11.360;2023-05-13T01:15:50;1.23;;;1.13;;
9815;SDS011;4947;44.526;11.360;2023-05-13T01:18:23;1.15;;;1.05;;
9815;SDS011;4947;44.526;11.360;2023-05-13T01:20:53;1.95;;;1.17;;
9815;SDS011;4947;44.526;11.360;2023-05-13T01:23:23;1.30;;;1.00;;
9815;SDS011;4947;44.526;11.360;2023-05-13T01:25:52;0.90;;;0.90;;
9815;SDS011;4947;44.526;11.360;2023-05-13T01:28:20;1.92;;;1.25;;
9815;SDS011;4947;44.526;11.360;2023-05-13T01:30:48;1.23;;;0.98;;
9815;SDS011;4947;44.526;11.360;2023-05-13T01:33:16;1.27;;;1.17;;
9815;SDS011;4947;44.526;11.360;2023-05-13T01:35:44;1.77;;;1.20;;
9815;SDS011;4947;44.526;11.360;2023-05-13T01:38:13;1.20;;;1.10;;
9815;SDS011;4947;44.526;11.360;2023-05-13T01:40:42;1.05;;;0.93;;
9815;SDS011;4947;44.526;11.360;2023-05-13T01:43:10;1.48;;;1.20;;
9815;SDS011;4947;44.526;11.360;2023-05-13T01:45:38;1.05;;;0.93;;
9815;SDS011;4947;44.526;11.360;2023-05-13T01:48:05;1.20;;;1.10;;
9815;SDS011;4947;44.526;11.360;2023-05-13T01:50:32;2.10;;;1.23;;
9815;SDS011;4947;44.526;11.360;2023-05-13T01:53:01;1.17;;;1.08;;
9815;SDS011;4947;44.526;11.360;2023-05-13T01:55:28;1.15;;;0.90;;
9815;SDS011;4947;44.526;11.360;2023-05-13T01:58:00;1.13;;;1.05;;
9815;SDS011;4947;44.526;11.360;2023-05-13T02:00:28;0.82;;;0.82;;
9815;SDS011;4947;44.526;11.360;2023-05-13T02:02:55;0.98;;;0.98;;
9815;SDS011;4947;44.526;11.360;2023-05-13T02:05:23;0.88;;;0.88;;
9815;SDS011;4947;44.526;11.360;2023-05-13T02:07:50;1.77;;;0.90;;
9815;SDS011;4947;44.526;11.360;2023-05-13T02:10:18;1.30;;;1.15;;
9815;SDS011;4947;44.526;11.360;2023-05-13T02:12:46;1.42;;;0.90;;
9815;SDS011;4947;44.526;11.360;2023-05-13T02:15:15;1.15;;;1.05;;
9815;SDS011;4947;44.526;11.360;2023-05-13T02:17:43;1.25;;;1.00;;
9815;SDS011;4947;44.526;11.360;2023-05-13T02:20:11;0.93;;;0.90;;
9815;SDS011;4947;44.526;11.360;2023-05-13T02:22:38;0.90;;;0.90;;
9815;SDS011;4947;44.526;11.360;2023-05-13T02:25:06;1.13;;;1.02;;
9815;SDS011;4947;44.526;11.360;2023-05-13T02:27:34;1.10;;;1.00;;
9815;SDS011;4947;44.526;11.360;2023-05-13T02:30:02;1.30;;;1.20;;
9815;SDS011;4947;44.526;11.360;2023-05-13T02:32:32;1.23;;;1.13;;
9815;SDS011;4947;44.526;11.360;2023-05-13T02:35:00;1.10;;;1.00;;
9815;SDS011;4947;44.526;11.360;2023-05-13T02:37:28;1.00;;;0.90;;
9815;SDS011;4947;44.526;11.360;2023-05-13T02:39:55;1.20;;;1.10;;
9815;SDS011;4947;44.526;11.360;2023-05-13T02:42:22;0.90;;;0.90;;
9815;SDS011;4947;44.526;11.360;2023-05-13T02:44:50;1.00;;;0.90;;
9815;SDS011;4947;44.526;11.360;2023-05-13T02:47:18;1.00;;;1.00;;
9815;SDS011;4947;44.526;11.360;2023-05-13T02:49:47;0.93;;;0.93;;
9815;SDS011;4947;44.526;11.360;2023-05-13T02:52:14;1.10;;;1.00;;
9815;SDS011;4947;44.526;11.360;2023-05-13T02:54:41;1.10;;;1.00;;
9815;SDS011;4947;44.526;11.360;2023-05-13T02:57:09;0.90;;;0.90;;
9815;SDS011;4947;44.526;11.360;2023-05-13T02:59:37;1.02;;;1.00;;
9815;SDS011;4947;44.526;11.360;2023-05-13T03:02:05;1.13;;;0.90;;
9815;SDS011;4947;44.526;11.360;2023-05-13T03:04:33;1.20;;;1.10;;
9815;SDS011;4947;44.526;11.360;2023-05-13T03:07:02;1.08;;;0.95;;
9815;SDS011;4947;44.526;11.360;2023-05-13T03:09:30;1.45;;;1.10;;
9815;SDS011;4947;44.526;11.360;2023-05-13T03:11:59;1.02;;;0.98;;
9815;SDS011;4947;44.526;11.360;2023-05-13T03:14:27;1.15;;;1.05;;
9815;SDS011;4947;44.526;11.360;2023-05-13T03:16:54;1.30;;;1.20;;
9815;SDS011;4947;44.526;11.360;2023-05-13T03:19:22;1.00;;;1.00;;
9815;SDS011;4947;44.526;11.360;2023-05-13T03:21:50;1.17;;;1.08;;
9815;SDS011;4947;44.526;11.360;2023-05-13T03:24:19;1.65;;;0.85;;
9815;SDS011;4947;44.526;11.360;2023-05-13T03:26:47;1.08;;;1.00;;
9815;SDS011;4947;44.526;11.360;2023-05-13T03:29:15;0.95;;;0.95;;
9815;SDS011;4947;44.526;11.360;2023-05-13T03:31:43;1.48;;;1.23;;
9815;SDS011;4947;44.526;11.360;2023-05-13T03:34:11;1.20;;;1.10;;
9815;SDS011;4947;44.526;11.360;2023-05-13T03:36:38;0.90;;;0.90;;
9815;SDS011;4947;44.526;11.360;2023-05-13T03:39:06;1.15;;;1.05;;
9815;SDS011;4947;44.526;11.360;2023-05-13T03:41:35;1.38;;;1.27;;
9815;SDS011;4947;44.526;11.360;2023-05-13T03:44:03;1.00;;;1.00;;
9815;SDS011;4947;44.526;11.360;2023-05-13T03:46:32;1.00;;;1.00;;
9815;SDS011;4947;44.526;11.360;2023-05-13T03:48:59;0.80;;;0.80;;
9815;SDS011;4947;44.526;11.360;2023-05-13T03:51:28;1.20;;;1.10;;
9815;SDS011;4947;44.526;11.360;2023-05-13T03:53:55;0.73;;;0.73;;
9815;SDS011;4947;44.526;11.360;2023-05-13T03:56:22;1.30;;;1.02;;
9815;SDS011;4947;44.526;11.360;2023-05-13T03:58:51;1.20;;;1.10;;
9815;SDS011;4947;44.526;11.360;2023-05-13T04:01:19;1.40;;;0.98;;
9815;SDS011;4947;44.526;11.360;2023-05-13T04:03:48;1.00;;;1.00;;
9815;SDS011;4947;44.526;11.360;2023-05-13T04:06:15;1.10;;;0.95;;
9815;SDS011;4947;44.526;11.360;2023-05-13T04:08:43;0.98;;;0.98;;
9815;SDS011;4947;44.526;11.360;2023-05-13T04:11:10;0.85;;;0.82;;
9815;SDS011;4947;44.526;11.360;2023-05-13T04:13:38;0.93;;;0.93;;
9815;SDS011;4947;44.526;11.360;2023-05-13T04:16:07;1.40;;;1.30;;
9815;SDS011;4947;44.526;11.360;2023-05-13T04:18:38;1.10;;;1.00;;
9815;SDS011;4947;44.526;11.360;2023-05-13T04:21:06;0.80;;;0.80;;
9815;SDS011;4947;44.526;11.360;2023-05-13T04:23:33;1.17;;;1.08;;
9815;SDS011;4947;44.526;11.360;2023-05-13T04:26:01;1.08;;;0.98;;
9815;SDS011;4947;44.526;11.360;2023-05-13T04:28:28;1.40;;;1.30;;
9815;SDS011;4947;44.526;11.360;2023-05-13T04:30:56;1.00;;;1.00;;
9815;SDS011;4947;44.526;11.360;2023-05-13T04:33:25;0.98;;;0.98;;
9815;SDS011;4947;44.526;11.360;2023-05-13T04:35:53;1.20;;;1.10;;
9815;SDS011;4947;44.526;11.360;2023-05-13T04:38:20;0.90;;;0.90;;
9815;SDS011;4947;44.526;11.360;2023-05-13T04:40:48;1.13;;;1.02;;
9815;SDS011;4947;44.526;11.360;2023-05-13T04:43:16;0.93;;;0.93;;
9815;SDS011;4947;44.526;11.360;2023-05-13T04:45:43;1.05;;;0.98;;
9815;SDS011;4947;44.526;11.360;2023-05-13T04:48:13;1.10;;;1.00;;
9815;SDS011;4947;44.526;11.360;2023-05-13T04:50:44;1.00;;;0.98;;
9815;SDS011;4947;44.526;11.360;2023-05-13T04:53:12;1.08;;;0.98;;
9815;SDS011;4947;44.526;11.360;2023-05-13T04:55:40;0.90;;;0.90;;
9815;SDS011;4947;44.526;11.360;2023-05-13T04:58:08;1.10;;;1.00;;
9815;SDS011;4947;44.526;11.360;2023-05-13T05:00:36;1.33;;;1.23;;
9815;SDS011;4947;44.526;11.360;2023-05-13T05:03:04;1.33;;;1.23;;
9815;SDS011;4947;44.526;11.360;2023-05-13T05:05:31;1.20;;;1.10;;
9815;SDS011;4947;44.526;11.360;2023-05-13T05:08:00;0.90;;;0.90;;
9815;SDS011;4947;44.526;11.360;2023-05-13T05:10:28;0.80;;;0.80;;
9815;SDS011;4947;44.526;11.360;2023-05-13T05:12:55;0.98;;;0.98;;
9815;SDS011;4947;44.526;11.360;2023-05-13T05:15:23;1.25;;;1.02;;
9815;SDS011;4947;44.526;11.360;2023-05-13T05:17:50;1.30;;;1.10;;
9815;SDS011;4947;44.526;11.360;2023-05-13T05:20:18;1.40;;;1.30;;
9815;SDS011;4947;44.526;11.360;2023-05-13T05:22:46;0.90;;;0.90;;
9815;SDS011;4947;44.526;11.360;2023-05-13T05:25:15;1.20;;;1.10;;
9815;SDS011;4947;44.526;11.360;2023-05-13T05:27:43;1.20;;;1.10;;
9815;SDS011;4947;44.526;11.360;2023-05-13T05:30:11;1.30;;;1.20;;
9815;SDS011;4947;44.526;11.360;2023-05-13T05:32:40;1.23;;;0.93;;
9815;SDS011;4947;44.526;11.360;2023-05-13T05:35:08;1.10;;;1.00;;
9815;SDS011;4947;44.526;11.360;2023-05-13T05:37:37;1.30;;;1.25;;
9815;SDS011;4947;44.526;11.360;2023-05-13T05:40:05;1.63;;;1.52;;
9815;SDS011;4947;44.526;11.360;2023-05-13T05:42:35;1.40;;;1.30;;
9815;SDS011;4947;44.526;11.360;2023-05-13T05:45:03;0.80;;;0.80;;
9815;SDS011;4947;44.526;11.360;2023-05-13T05:47:31;1.20;;;1.10;;
9815;SDS011;4947;44.526;11.360;2023-05-13T05:49:59;1.23;;;1.10;;
9815;SDS011;4947;44.526;11.360;2023-05-13T05:52:27;1.20;;;1.10;;
9815;SDS011;4947;44.526;11.360;2023-05-13T05:54:54;1.23;;;1.08;;
9815;SDS011;4947;44.526;11.360;2023-05-13T05:57:21;1.33;;;1.02;;
9815;SDS011;4947;44.526;11.360;2023-05-13T05:59:51;1.27;;;1.17;;
9815;SDS011;4947;44.526;11.360;2023-05-13T06:02:19;1.38;;;1.20;;
9815;SDS011;4947;44.526;11.360;2023-05-13T06:04:46;1.08;;;0.93;;
9815;SDS011;4947;44.526;11.360;2023-05-13T06:07:14;0.90;;;0.90;;
9815;SDS011;4947;44.526;11.360;2023-05-13T06:09:42;1.00;;;1.00;;
9815;SDS011;4947;44.526;11.360;2023-05-13T06:12:11;1.30;;;1.20;;
9815;SDS011;4947;44.526;11.360;2023-05-13T06:14:38;1.38;;;1.27;;
9815;SDS011;4947;44.526;11.360;2023-05-13T06:17:08;1.58;;;1.10;;
9815;SDS011;4947;44.526;11.360;2023-05-13T06:19:35;0.82;;;0.82;;
9815;SDS011;4947;44.526;11.360;2023-05-13T06:22:03;1.50;;;1.38;;
9815;SDS011;4947;44.526;11.360;2023-05-13T06:24:30;1.35;;;1.10;;
9815;SDS011;4947;44.526;11.360;2023-05-13T06:26:58;1.38;;;1.20;;
9815;SDS011;4947;44.526;11.360;2023-05-13T06:29:25;1.40;;;1.27;;
9815;SDS011;4947;44.526;11.360;2023-05-13T06:31:53;1.38;;;1.27;;
9815;SDS011;4947;44.526;11.360;2023-05-13T06:34:22;1.30;;;1.17;;
9815;SDS011;4947;44.526;11.360;2023-05-13T06:36:49;1.10;;;1.00;;
9815;SDS011;4947;44.526;11.360;2023-05-13T06:39:17;0.98;;;0.90;;
9815;SDS011;4947;44.526;11.360;2023-05-13T06:41:44;1.63;;;1.52;;
9815;SDS011;4947;44.526;11.360;2023-05-13T06:44:12;1.00;;;1.00;;
9815;SDS011;4947;44.526;11.360;2023-05-13T06:46:39;1.30;;;1.20;;
9815;SDS011;4947;44.526;11.360;2023-05-13T06:49:07;1.65;;;1.20;;
9815;SDS011;4947;44.526;11.360;2023-05-13T06:51:36;1.30;;;1.20;;
9815;SDS011;4947;44.526;11.360;2023-05-13T06:54:04;1.05;;;0.95;;
9815;SDS011;4947;44.526;11.360;2023-05-13T06:56:32;1.00;;;0.90;;
9815;SDS011;4947;44.526;11.360;2023-05-13T06:59:00;1.00;;;1.00;;
9815;SDS011;4947;44.526;11.360;2023-05-13T07:01:28;1.30;;;1.10;;
9815;SDS011;4947;44.526;11.360;2023-05-13T07:03:55;1.45;;;1.30;;
9815;SDS011;4947;44.526;11.360;2023-05-13T07:06:23;1.40;;;1.30;;
9815;SDS011;4947;44.526;11.360;2023-05-13T07:08:52;1.23;;;1.13;;
9815;SDS011;4947;44.526;11.360;2023-05-13T07:11:21;1.30;;;1.20;;
9815;SDS011;4947;44.526;11.360;2023-05-13T07:13:48;1.00;;;1.00;;
9815;SDS011;4947;44.526;11.360;2023-05-13T07:16:16;1.63;;;1.23;;
9815;SDS011;4947;44.526;11.360;2023-05-13T07:18:43;1.35;;;1.25;;
9815;SDS011;4947;44.526;11.360;2023-05-13T07:21:11;1.38;;;1.27;;
9815;SDS011;4947;44.526;11.360;2023-05-13T07:23:39;1.50;;;1.20;;
9815;SDS011;4947;44.526;11.360;2023-05-13T07:26:08;1.40;;;1.23;;
9815;SDS011;4947;44.526;11.360;2023-05-13T07:28:36;1.38;;;1.23;;
9815;SDS011;4947;44.526;11.360;2023-05-13T07:31:04;1.45;;;1.35;;
9815;SDS011;4947;44.526;11.360;2023-05-13T07:33:32;1.00;;;1.00;;
9815;SDS011;4947;44.526;11.360;2023-05-13T07:35:59;1.42;;;1.30;;
9815;SDS011;4947;44.526;11.360;2023-05-13T07:38:28;1.48;;;1.10;;
9815;SDS011;4947;44.526;11.360;2023-05-13T07:40:56;1.42;;;1.10;;
9815;SDS011;4947;44.526;11.360;2023-05-13T07:43:24;1.23;;;1.13;;
9815;SDS011;4947;44.526;11.360;2023-05-13T07:45:52;1.25;;;1.15;;
9815;SDS011;4947;44.526;11.360;2023-05-13T07:48:20;1.38;;;1.27;;
9815;SDS011;4947;44.526;11.360;2023-05-13T07:50:49;1.25;;;1.15;;
9815;SDS011;4947;44.526;11.360;2023-05-13T07:53:17;1.48;;;1.38;;
9815;SDS011;4947;44.526;11.360;2023-05-13T07:55:44;1.90;;;1.58;;
9815;SDS011;4947;44.526;11.360;2023-05-13T07:58:12;1.48;;;1.38;;
9815;SDS011;4947;44.526;11.360;2023-05-13T08:00:41;1.42;;;1.10;;
9815;SDS011;4947;44.526;11.360;2023-05-13T08:03:09;1.20;;;1.10;;
9815;SDS011;4947;44.526;11.360;2023-05-13T08:05:41;1.30;;;1.15;;
9815;SDS011;4947;44.526;11.360;2023-05-13T08:08:08;1.38;;;1.15;;
9815;SDS011;4947;44.526;11.360;2023-05-13T08:10:36;1.80;;;1.38;;
9815;SDS011;4947;44.526;11.360;2023-05-13T08:13:04;1.85;;;1.30;;
9815;SDS011;4947;44.526;11.360;2023-05-13T08:15:32;1.48;;;1.38;;
9815;SDS011;4947;44.526;11.360;2023-05-13T08:18:00;1.52;;;1.42;;
9815;SDS011;4947;44.526;11.360;2023-05-13T08:20:28;1.25;;;1.13;;
9815;SDS011;4947;44.526;11.360;2023-05-13T08:22:56;1.77;;;1.38;;
9815;SDS011;4947;44.526;11.360;2023-05-13T08:25:23;1.55;;;1.45;;
9815;SDS011;4947;44.526;11.360;2023-05-13T08:27:52;1.35;;;1.25;;
9815;SDS011;4947;44.526;11.360;2023-05-13T08:30:20;1.70;;;1.40;;
9815;SDS011;4947;44.526;11.360;2023-05-13T08:32:48;1.48;;;1.38;;
9815;SDS011;4947;44.526;11.360;2023-05-13T08:35:16;1.40;;;1.30;;
9815;SDS011;4947;44.526;11.360;2023-05-13T08:37:44;1.17;;;1.08;;
9815;SDS011;4947;44.526;11.360;2023-05-13T08:40:11;1.70;;;1.60;;
9815;SDS011;4947;44.526;11.360;2023-05-13T08:42:39;1.65;;;1.50;;
9815;SDS011;4947;44.526;11.360;2023-05-13T08:45:08;1.23;;;1.13;;
9815;SDS011;4947;44.526;11.360;2023-05-13T08:47:43;1.77;;;1.40;;
9815;SDS011;4947;44.526;11.360;2023-05-13T08:50:18;1.55;;;1.40;;
9815;SDS011;4947;44.526;11.360;2023-05-13T08:52:45;1.60;;;1.50;;
9815;SDS011;4947;44.526;11.360;2023-05-13T08:55:12;1.40;;;1.30;;
9815;SDS011;4947;44.526;11.360;2023-05-13T08:57:41;1.50;;;1.30;;
9815;SDS011;4947;44.526;11.360;2023-05-13T09:00:09;1.77;;;1.20;;
9815;SDS011;4947;44.526;11.360;2023-05-13T09:02:38;6.30;;;2.13;;
9815;SDS011;4947;44.526;11.360;2023-05-13T09:05:06;5.00;;;3.95;;
9815;SDS011;4947;44.526;11.360;2023-05-13T09:07:37;6.07;;;4.45;;
9815;SDS011;4947;44.526;11.360;2023-05-13T09:10:05;5.53;;;4.15;;
9815;SDS011;4947;44.526;11.360;2023-05-13T09:12:44;5.10;;;3.58;;
9815;SDS011;4947;44.526;11.360;2023-05-13T09:15:12;4.22;;;3.33;;
9815;SDS011;4947;44.526;11.360;2023-05-13T09:17:40;3.15;;;2.58;;
9815;SDS011;4947;44.526;11.360;2023-05-13T09:20:10;3.47;;;3.03;;
9815;SDS011;4947;44.526;11.360;2023-05-13T09:22:42;3.97;;;2.83;;
9815;SDS011;4947;44.526;11.360;2023-05-13T09:25:12;4.30;;;2.65;;
9815;SDS011;4947;44.526;11.360;2023-05-13T09:27:44;4.18;;;3.08;;
9815;SDS011;4947;44.526;11.360;2023-05-13T09:30:13;3.00;;;2.60;;
9815;SDS011;4947;44.526;11.360;2023-05-13T09:32:41;2.70;;;2.35;;
9815;SDS011;4947;44.526;11.360;2023-05-13T09:35:09;2.90;;;2.40;;
9815;SDS011;4947;44.526;11.360;2023-05-13T09:37:42;3.47;;;2.63;;
9815;SDS011;4947;44.526;11.360;2023-05-13T09:40:10;2.92;;;2.38;;
9815;SDS011;4947;44.526;11.360;2023-05-13T09:42:42;3.72;;;2.97;;
9815;SDS011;4947;44.526;11.360;2023-05-13T09:45:10;2.47;;;2.05;;
9815;SDS011;4947;44.526;11.360;2023-05-13T09:47:38;3.55;;;2.58;;
9815;SDS011;4947;44.526;11.360;2023-05-13T09:50:07;2.65;;;2.30;;
9815;SDS011;4947;44.526;11.360;2023-05-13T09:52:37;3.00;;;2.70;;
9815;SDS011;4947;44.526;11.360;2023-05-13T09:55:08;2.97;;;2.67;;
9815;SDS011;4947;44.526;11.360;2023-05-13T09:57:36;3.58;;;2.33;;
9815;SDS011;4947;44.526;11.360;2023-05-13T10:00:05;3.53;;;2.40;;
9815;SDS011;4947;44.526;11.360;2023-05-13T10:02:33;3.38;;;2.50;;
9815;SDS011;4947;44.526;11.360;2023-05-13T10:05:03;2.88;;;2.38;;
9815;SDS011;4947;44.526;11.360;2023-05-13T10:07:33;4.30;;;2.30;;
9815;SDS011;4947;44.526;11.360;2023-05-13T10:10:02;3.53;;;2.50;;
9815;SDS011;4947;44.526;11.360;2023-05-13T10:12:33;2.20;;;2.00;;
9815;SDS011;4947;44.526;11.360;2023-05-13T10:15:04;2.90;;;2.10;;
9815;SDS011;4947;44.526;11.360;2023-05-13T10:17:34;2.83;;;2.22;;
9815;SDS011;4947;44.526;11.360;2023-05-13T10:20:03;2.65;;;2.10;;
9815;SDS011;4947;44.526;11.360;2023-05-13T10:22:31;2.47;;;2.25;;
9815;SDS011;4947;44.526;11.360;2023-05-13T10:25:03;2.53;;;2.33;;
9815;SDS011;4947;44.526;11.360;2023-05-13T10:27:34;3.53;;;2.55;;
9815;SDS011;4947;44.526;11.360;2023-05-13T10:30:01;2.53;;;2.20;;
9815;SDS011;4947;44.526;11.360;2023-05-13T10:32:34;4.07;;;2.00;;
9815;SDS011;4947;44.526;11.360;2023-05-13T10:35:05;2.63;;;2.10;;
9815;SDS011;4947;44.526;11.360;2023-05-13T10:37:49;2.53;;;2.10;;
9815;SDS011;4947;44.526;11.360;2023-05-13T10:43:31;2.72;;;2.38;;
9815;SDS011;4947;44.526;11.360;2023-05-13T10:46:04;2.38;;;2.17;;
9815;SDS011;4947;44.526;11.360;2023-05-13T10:48:38;2.40;;;2.05;;
9815;SDS011;4947;44.526;11.360;2023-05-13T10:51:08;2.70;;;2.17;;
9815;SDS011;4947;44.526;11.360;2023-05-13T10:53:42;2.90;;;2.10;;
9815;SDS011;4947;44.526;11.360;2023-05-13T10:56:12;2.10;;;1.90;;
9815;SDS011;4947;44.526;11.360;2023-05-13T10:58:42;1.83;;;1.70;;
9815;SDS011;4947;44.526;11.360;2023-05-13T11:01:24;3.05;;;2.17;;
9815;SDS011;4947;44.526;11.360;2023-05-13T11:03:54;7.90;;;2.75;;
9815;SDS011;4947;44.526;11.360;2023-05-13T11:06:23;8.32;;;2.45;;
9815;SDS011;4947;44.526;11.360;2023-05-13T11:08:55;6.72;;;2.47;;
9815;SDS011;4947;44.526;11.360;2023-05-13T11:11:24;9.75;;;2.20;;
9815;SDS011;4947;44.526;11.360;2023-05-13T11:14:01;6.07;;;2.15;;
9815;SDS011;4947;44.526;11.360;2023-05-13T11:16:32;7.57;;;2.50;;
9815;SDS011;4947;44.526;11.360;2023-05-13T11:19:01;3.50;;;1.90;;
9815;SDS011;4947;44.526;11.360;2023-05-13T11:21:30;7.47;;;2.80;;
9815;SDS011;4947;44.526;11.360;2023-05-13T11:24:00;7.32;;;2.40;;
9815;SDS011;4947;44.526;11.360;2023-05-13T11:26:42;8.43;;;2.30;;
9815;SDS011;4947;44.526;11.360;2023-05-13T11:29:13;3.60;;;2.00;;
9815;SDS011;4947;44.526;11.360;2023-05-13T11:31:45;6.20;;;2.00;;
9815;SDS011;4947;44.526;11.360;2023-05-13T11:34:17;3.30;;;2.22;;
9815;SDS011;4947;44.526;11.360;2023-05-13T11:36:46;3.50;;;2.10;;
9815;SDS011;4947;44.526;11.360;2023-05-13T11:39:15;2.00;;;1.77;;
9815;SDS011;4947;44.526;11.360;2023-05-13T11:41:51;4.97;;;1.92;;
9815;SDS011;4947;44.526;11.360;2023-05-13T11:44:23;4.63;;;2.13;;
9815;SDS011;4947;44.526;11.360;2023-05-13T11:46:51;2.30;;;1.80;;
9815;SDS011;4947;44.526;11.360;2023-05-13T11:49:30;2.70;;;1.55;;
9815;SDS011;4947;44.526;11.360;2023-05-13T11:51:59;3.88;;;1.80;;
9815;SDS011;4947;44.526;11.360;2023-05-13T11:54:27;3.28;;;1.70;;
9815;SDS011;4947;44.526;11.360;2023-05-13T11:56:54;1.50;;;1.40;;
9815;SDS011;4947;44.526;11.360;2023-05-13T11:59:24;4.97;;;1.60;;
9815;SDS011;4947;44.526;11.360;2023-05-13T12:01:57;2.22;;;1.67;;
9815;SDS011;4947;44.526;11.360;2023-05-13T12:04:28;1.88;;;1.65;;
9815;SDS011;4947;44.526;11.360;2023-05-13T12:06:56;2.28;;;1.70;;
9815;SDS011;4947;44.526;11.360;2023-05-13T12:09:23;2.70;;;1.50;;
9815;SDS011;4947;44.526;11.360;2023-05-13T12:11:51;2.70;;;1.60;;
9815;SDS011;4947;44.526;11.360;2023-05-13T12:14:19;2.05;;;1.85;;
9815;SDS011;4947;44.526;11.360;2023-05-13T12:16:49;2.25;;;1.52;;
9815;SDS011;4947;44.526;11.360;2023-05-13T12:19:18;1.77;;;1.63;;
9815;SDS011;4947;44.526;11.360;2023-05-13T12:21:51;3.95;;;1.60;;
9815;SDS011;4947;44.526;11.360;2023-05-13T12:24:19;2.85;;;1.65;;
9815;SDS011;4947;44.526;11.360;2023-05-13T12:26:47;1.85;;;1.60;;
9815;SDS011;4947;44.526;11.360;2023-05-13T12:29:15;3.10;;;1.48;;
9815;SDS011;4947;44.526;11.360;2023-05-13T12:34:30;1.83;;;1.60;;
9815;SDS011;4947;44.526;11.360;2023-05-13T12:37:08;2.55;;;1.48;;
9815;SDS011;4947;44.526;11.360;2023-05-13T12:39:36;2.53;;;1.65;;
9815;SDS011;4947;44.526;11.360;2023-05-13T12:42:04;1.50;;;1.40;;
9815;SDS011;4947;44.526;11.360;2023-05-13T12:44:31;1.88;;;1.30;;
9815;SDS011;4947;44.526;11.360;2023-05-13T12:46:59;2.28;;;1.30;;
9815;SDS011;4947;44.526;11.360;2023-05-13T12:49:28;3.13;;;1.40;;
9815;SDS011;4947;44.526;11.360;2023-05-13T12:51:56;2.60;;;1.40;;
9815;SDS011;4947;44.526;11.360;2023-05-13T12:54:23;1.73;;;1.20;;
9815;SDS011;4947;44.526;11.360;2023-05-13T12:56:51;1.23;;;1.10;;
9815;SDS011;4947;44.526;11.360;2023-05-13T12:59:19;1.90;;;1.20;;
9815;SDS011;4947;44.526;11.360;2023-05-13T13:01:47;2.20;;;1.38;;
9815;SDS011;4947;44.526;11.360;2023-05-13T13:04:15;2.15;;;1.40;;
9815;SDS011;4947;44.526;11.360;2023-05-13T13:06:44;1.65;;;1.20;;
9815;SDS011;4947;44.526;11.360;2023-05-13T13:09:12;1.92;;;1.30;;
9815;SDS011;4947;44.526;11.360;2023-05-13T13:11:39;2.58;;;1.30;;
9815;SDS011;4947;44.526;11.360;2023-05-13T13:14:07;1.25;;;1.15;;
9815;SDS011;4947;44.526;11.360;2023-05-13T13:16:35;3.10;;;1.50;;
9815;SDS011;4947;44.526;11.360;2023-05-13T13:19:02;1.25;;;1.15;;
9815;SDS011;4947;44.526;11.360;2023-05-13T13:21:29;1.75;;;1.25;;
9815;SDS011;4947;44.526;11.360;2023-05-13T13:23:59;1.73;;;1.17;;
9815;SDS011;4947;44.526;11.360;2023-05-13T13:26:26;3.63;;;1.50;;
9815;SDS011;4947;44.526;11.360;2023-05-13T13:28:54;2.60;;;1.20;;
9815;SDS011;4947;44.526;11.360;2023-05-13T13:31:22;1.25;;;1.15;;
9815;SDS011;4947;44.526;11.360;2023-05-13T13:33:49;2.50;;;1.30;;
9815;SDS011;4947;44.526;11.360;2023-05-13T13:36:17;2.35;;;1.13;;
9815;SDS011;4947;44.526;11.360;2023-05-13T13:38:45;1.40;;;0.98;;
9815;SDS011;4947;44.526;11.360;2023-05-13T13:41:14;1.77;;;1.10;;
9815;SDS011;4947;44.526;11.360;2023-05-13T13:43:43;2.03;;;1.10;;
9815;SDS011;4947;44.526;11.360;2023-05-13T13:46:10;1.45;;;1.35;;
9815;SDS011;4947;44.526;11.360;2023-05-13T13:48:38;1.30;;;1.10;;
9815;SDS011;4947;44.526;11.360;2023-05-13T13:51:06;2.53;;;1.15;;
9815;SDS011;4947;44.526;11.360;2023-05-13T13:53:33;1.38;;;1.10;;
9815;SDS011;4947;44.526;11.360;2023-05-13T13:56:00;2.00;;;1.00;;
9815;SDS011;4947;44.526;11.360;2023-05-13T13:58:30;0.95;;;0.93;;
9815;SDS011;4947;44.526;11.360;2023-05-13T14:00:57;4.90;;;1.13;;
9815;SDS011;4947;44.526;11.360;2023-05-13T14:03:25;1.20;;;1.10;;
9815;SDS011;4947;44.526;11.360;2023-05-13T14:05:53;1.77;;;1.20;;
9815;SDS011;4947;44.526;11.360;2023-05-13T14:08:21;1.42;;;1.10;;
9815;SDS011;4947;44.526;11.360;2023-05-13T14:10:49;0.90;;;0.88;;
9815;SDS011;4947;44.526;11.360;2023-05-13T14:13:16;1.02;;;1.00;;
9815;SDS011;4947;44.526;11.360;2023-05-13T14:15:45;1.10;;;1.00;;
9815;SDS011;4947;44.526;11.360;2023-05-13T14:18:13;1.92;;;1.10;;
9815;SDS011;4947;44.526;11.360;2023-05-13T14:20:40;3.05;;;1.10;;
9815;SDS011;4947;44.526;11.360;2023-05-13T14:23:08;1.08;;;0.98;;
9815;SDS011;4947;44.526;11.360;2023-05-13T14:25:35;1.90;;;1.00;;
9815;SDS011;4947;44.526;11.360;2023-05-13T14:28:03;1.23;;;1.00;;
9815;SDS011;4947;44.526;11.360;2023-05-13T14:30:30;1.10;;;1.00;;
9815;SDS011;4947;44.526;11.360;2023-05-13T14:32:59;0.88;;;0.88;;
9815;SDS011;4947;44.526;11.360;2023-05-13T14:35:27;1.25;;;0.73;;
9815;SDS011;4947;44.526;11.360;2023-05-13T14:37:55;1.27;;;0.93;;
9815;SDS011;4947;44.526;11.360;2023-05-13T14:40:22;1.55;;;1.10;;
9815;SDS011;4947;44.526;11.360;2023-05-13T14:42:50;1.58;;;1.00;;
9815;SDS011;4947;44.526;11.360;2023-05-13T14:45:18;2.20;;;0.98;;
9815;SDS011;4947;44.526;11.360;2023-05-13T14:47:46;1.10;;;1.00;;
9815;SDS011;4947;44.526;11.360;2023-05-13T14:50:15;1.00;;;1.00;;
9815;SDS011;4947;44.526;11.360;2023-05-13T14:52:43;1.77;;;1.00;;
9815;SDS011;4947;44.526;11.360;2023-05-13T14:55:11;1.92;;;1.20;;
9815;SDS011;4947;44.526;11.360;2023-05-13T14:57:39;1.10;;;1.00;;
9815;SDS011;4947;44.526;11.360;2023-05-13T15:00:07;2.33;;;1.10;;
9815;SDS011;4947;44.526;11.360;2023-05-13T15:02:35;0.82;;;0.80;;
9815;SDS011;4947;44.526;11.360;2023-05-13T15:05:03;2.75;;;1.10;;
9815;SDS011;4947;44.526;11.360;2023-05-13T15:07:34;1.15;;;1.05;;
9815;SDS011;4947;44.526;11.360;2023-05-13T15:10:02;2.65;;;1.00;;
9815;SDS011;4947;44.526;11.360;2023-05-13T15:12:29;2.00;;;1.10;;
9815;SDS011;4947;44.526;11.360;2023-05-13T15:14:57;0.88;;;0.88;;